sensor_id;sensor_type;location;lat;lon;timestamp;pressure;altitude;pressure_sealevel;temperature;humidity
56558;BME280;43358;50.356;12.456;2023-05-15T00:02:47;95062;;;10.4;91.7
56558;BME280;43358;50.356;12.456;2023-05-15T00:03:49;95063;;;10.4;91.5
56558;BME280;43358;50.356;12.456;2023-05-15T00:04:51;95060;;;10.4;91.5
56558;BME280;43358;50.356;12.456;2023-05-15T00:05:53;95054;;;10.4;91.5
56558;BME280;43358;50.356;12.456;2023-05-15T00:06:55;95053;;;10.4;91.4
56558;BME280;43358;50.356;12.456;2023-05-15T00:08:59;95052;;;10.5;91.6
56558;BME280;43358;50.356;12.456;2023-05-15T00:10:01;95052;;;10.5;91.4
56558;BME280;43358;50.356;12.456;2023-05-15T00:11:03;95051;;;10.5;91.5
56558;BME280;43358;50.356;12.456;2023-05-15T00:12:05;95052;;;10.5;91.6
56558;BME280;43358;50.356;12.456;2023-05-15T00:14:09;95053;;;10.4;91.4
56558;BME280;43358;50.356;12.456;2023-05-15T00:15:29;95054;;;10.5;91.3
56558;BME280;43358;50.356;12.456;2023-05-15T00:16:29;95051;;;10.5;91
56558;BME280;43358;50.356;12.456;2023-05-15T00:18:29;95051;;;10.5;90.7
56558;BME280;43358;50.356;12.456;2023-05-15T00:19:29;95048;;;10.5;91.1
56558;BME280;43358;50.356;12.456;2023-05-15T00:21:29;95045;;;10.4;91.5
56558;BME280;43358;50.356;12.456;2023-05-15T00:22:29;95046;;;10.4;91.5
56558;BME280;43358;50.356;12.456;2023-05-15T00:23:29;95046;;;10.4;91.6
56558;BME280;43358;50.356;12.456;2023-05-15T00:24:30;95044;;;10.4;91.5
56558;BME280;43358;50.356;12.456;2023-05-15T00:25:32;95044;;;10.4;91.7
56558;BME280;43358;50.356;12.456;2023-05-15T00:26:42;95042;;;10.4;91.8
56558;BME280;43358;50.356;12.456;2023-05-15T00:27:36;95042;;;10.3;92
56558;BME280;43358;50.356;12.456;2023-05-15T00:28:38;95040;;;10.3;92.2
56558;BME280;43358;50.356;12.456;2023-05-15T00:30:42;95037;;;10.3;92.3
56558;BME280;43358;50.356;12.456;2023-05-15T00:31:44;95037;;;10.3;92.4
56558;BME280;43358;50.356;12.456;2023-05-15T00:34:29;95031;;;10.2;92.3
56558;BME280;43358;50.356;12.456;2023-05-15T00:35:30;95030;;;10.2;92.4
56558;BME280;43358;50.356;12.456;2023-05-15T00:36:29;95031;;;10.2;92.4
56558;BME280;43358;50.356;12.456;2023-05-15T00:37:29;95029;;;10.2;92.5
56558;BME280;43358;50.356;12.456;2023-05-15T00:38:29;95028;;;10.2;92.7
56558;BME280;43358;50.356;12.456;2023-05-15T00:39:42;95028;;;10.1;92.8
56558;BME280;43358;50.356;12.456;2023-05-15T00:40:29;95028;;;10.1;92.7
56558;BME280;43358;50.356;12.456;2023-05-15T00:41:29;95030;;;10.1;92.6
56558;BME280;43358;50.356;12.456;2023-05-15T00:42:29;95026;;;10.1;92.8
56558;BME280;43358;50.356;12.456;2023-05-15T00:43:29;95026;;;10.1;92.9
56558;BME280;43358;50.356;12.456;2023-05-15T00:44:29;95025;;;10.1;92.9
56558;BME280;43358;50.356;12.456;2023-05-15T00:46:30;95022;;;10.1;92.9
56558;BME280;43358;50.356;12.456;2023-05-15T00:48:36;95021;;;10.1;92.7
56558;BME280;43358;50.356;12.456;2023-05-15T00:49:36;95019;;;10.1;92.8
56558;BME280;43358;50.356;12.456;2023-05-15T00:50:22;95022;;;10.1;93
56558;BME280;43358;50.356;12.456;2023-05-15T00:51:24;95022;;;10.1;92.9
56558;BME280;43358;50.356;12.456;2023-05-15T00:52:26;95015;;;10.1;92.9
56558;BME280;43358;50.356;12.456;2023-05-15T00:53:28;95017;;;10.1;92.7
56558;BME280;43358;50.356;12.456;2023-05-15T00:54:30;95016;;;10.1;92.5
56558;BME280;43358;50.356;12.456;2023-05-15T00:55:32;95017;;;10.2;92.5
56558;BME280;43358;50.356;12.456;2023-05-15T00:56:34;95016;;;10.2;92.5
56558;BME280;43358;50.356;12.456;2023-05-15T00:57:36;95018;;;10.2;92.4
56558;BME280;43358;50.356;12.456;2023-05-15T00:58:38;95020;;;10.2;92.2
56558;BME280;43358;50.356;12.456;2023-05-15T00:59:40;95016;;;10.2;92.2
56558;BME280;43358;50.356;12.456;2023-05-15T01:02:00;95011;;;10.2;92.1
56558;BME280;43358;50.356;12.456;2023-05-15T01:02:49;95012;;;10.2;92.2
56558;BME280;43358;50.356;12.456;2023-05-15T01:03:51;95011;;;10.2;92.2
56558;BME280;43358;50.356;12.456;2023-05-15T01:04:53;95011;;;10.2;92.1
56558;BME280;43358;50.356;12.456;2023-05-15T01:05:55;95010;;;10.2;92.1
56558;BME280;43358;50.356;12.456;2023-05-15T01:06:57;95010;;;10.2;92.2
56558;BME280;43358;50.356;12.456;2023-05-15T01:08:14;95007;;;10.2;92.3
56558;BME280;43358;50.356;12.456;2023-05-15T01:09:02;95006;;;10.2;92.2
56558;BME280;43358;50.356;12.456;2023-05-15T01:10:04;95007;;;10.2;92.3
56558;BME280;43358;50.356;12.456;2023-05-15T01:11:06;95008;;;10.2;92.3
56558;BME280;43358;50.356;12.456;2023-05-15T01:12:08;95007;;;10.2;92.3
56558;BME280;43358;50.356;12.456;2023-05-15T01:13:09;95005;;;10.2;92.3
56558;BME280;43358;50.356;12.456;2023-05-15T01:14:29;95005;;;10.2;92.1
56558;BME280;43358;50.356;12.456;2023-05-15T01:15:29;95006;;;10.2;92.1
56558;BME280;43358;50.356;12.456;2023-05-15T01:17:29;95005;;;10.2;92.2
56558;BME280;43358;50.356;12.456;2023-05-15T01:18:29;95007;;;10.2;92.2
56558;BME280;43358;50.356;12.456;2023-05-15T01:21:35;95006;;;10.2;92.3
56558;BME280;43358;50.356;12.456;2023-05-15T01:22:33;95007;;;10.2;92.1
56558;BME280;43358;50.356;12.456;2023-05-15T01:23:33;95007;;;10.2;92.2
56558;BME280;43358;50.356;12.456;2023-05-15T01:24:36;95008;;;10.2;92.2
56558;BME280;43358;50.356;12.456;2023-05-15T01:25:43;95006;;;10.2;92.3
56558;BME280;43358;50.356;12.456;2023-05-15T01:26:54;95006;;;10.2;92.3
56558;BME280;43358;50.356;12.456;2023-05-15T01:28:41;95003;;;10.2;92.5
56558;BME280;43358;50.356;12.456;2023-05-15T01:29:55;95008;;;10.2;92.5
56558;BME280;43358;50.356;12.456;2023-05-15T01:32:50;95004;;;10.1;92.7
56558;BME280;43358;50.356;12.456;2023-05-15T01:33:52;95003;;;10.1;93.2
56558;BME280;43358;50.356;12.456;2023-05-15T01:34:56;95000;;;10.1;93.1
56558;BME280;43358;50.356;12.456;2023-05-15T01:35:56;95003;;;10.1;93
56558;BME280;43358;50.356;12.456;2023-05-15T01:36:57;94999;;;10.1;92.9
56558;BME280;43358;50.356;12.456;2023-05-15T01:38:01;95000;;;10.1;92.9
56558;BME280;43358;50.356;12.456;2023-05-15T01:39:01;95001;;;10.1;92.9
56558;BME280;43358;50.356;12.456;2023-05-15T01:40:03;95000;;;10.1;92.9
56558;BME280;43358;50.356;12.456;2023-05-15T01:41:06;94999;;;10.1;93.1
56558;BME280;43358;50.356;12.456;2023-05-15T01:42:07;94997;;;10.1;93.2
56558;BME280;43358;50.356;12.456;2023-05-15T01:44:14;94998;;;10.1;93.2
56558;BME280;43358;50.356;12.456;2023-05-15T01:45:13;94994;;;10.1;93
56558;BME280;43358;50.356;12.456;2023-05-15T01:49:36;94995;;;10.1;92.9
56558;BME280;43358;50.356;12.456;2023-05-15T01:50:24;94996;;;10.1;92.9
56558;BME280;43358;50.356;12.456;2023-05-15T01:51:26;94996;;;10.1;92.9
56558;BME280;43358;50.356;12.456;2023-05-15T01:52:31;94996;;;10.1;92.9
56558;BME280;43358;50.356;12.456;2023-05-15T01:53:31;94994;;;10.1;92.8
56558;BME280;43358;50.356;12.456;2023-05-15T01:54:32;94993;;;10.1;92.7
56558;BME280;43358;50.356;12.456;2023-05-15T01:55:35;94994;;;10.1;92.6
56558;BME280;43358;50.356;12.456;2023-05-15T01:56:36;94992;;;10.1;92.5
56558;BME280;43358;50.356;12.456;2023-05-15T01:57:38;94990;;;10.1;92.5
56558;BME280;43358;50.356;12.456;2023-05-15T01:58:41;94989;;;10.1;92.5
56558;BME280;43358;50.356;12.456;2023-05-15T01:59:44;94988;;;10.1;92.5
56558;BME280;43358;50.356;12.456;2023-05-15T02:01:49;94983;;;10.1;92.5
56558;BME280;43358;50.356;12.456;2023-05-15T02:02:51;94985;;;10.1;92.5
56558;BME280;43358;50.356;12.456;2023-05-15T02:04:29;94983;;;10.1;92.6
56558;BME280;43358;50.356;12.456;2023-05-15T02:07:00;94977;;;10.1;92.5
56558;BME280;43358;50.356;12.456;2023-05-15T02:08:02;94978;;;10.1;92.4
56558;BME280;43358;50.356;12.456;2023-05-15T02:09:03;94977;;;10.1;92.5
56558;BME280;43358;50.356;12.456;2023-05-15T02:10:30;94976;;;10.1;92.5
56558;BME280;43358;50.356;12.456;2023-05-15T02:11:29;94974;;;10.1;92.6
56558;BME280;43358;50.356;12.456;2023-05-15T02:12:29;94972;;;10.1;92.8
56558;BME280;43358;50.356;12.456;2023-05-15T02:13:29;94970;;;10.1;92.8
56558;BME280;43358;50.356;12.456;2023-05-15T02:14:29;94969;;;10.1;92.7
56558;BME280;43358;50.356;12.456;2023-05-15T02:15:42;94971;;;10.1;92.8
56558;BME280;43358;50.356;12.456;2023-05-15T02:17:29;94971;;;10.1;92.7
56558;BME280;43358;50.356;12.456;2023-05-15T02:18:29;94971;;;10.1;92.4
56558;BME280;43358;50.356;12.456;2023-05-15T02:19:29;94973;;;10.1;92.3
56558;BME280;43358;50.356;12.456;2023-05-15T02:21:42;94972;;;10.1;92.6
56558;BME280;43358;50.356;12.456;2023-05-15T02:22:31;94973;;;10.1;92.9
56558;BME280;43358;50.356;12.456;2023-05-15T02:24:35;94971;;;10.1;93
56558;BME280;43358;50.356;12.456;2023-05-15T02:25:40;94970;;;10.1;93
56558;BME280;43358;50.356;12.456;2023-05-15T02:26:41;94968;;;10;93
56558;BME280;43358;50.356;12.456;2023-05-15T02:27:44;94969;;;10;93.1
56558;BME280;43358;50.356;12.456;2023-05-15T02:28:45;94967;;;10;93
56558;BME280;43358;50.356;12.456;2023-05-15T02:29:50;94965;;;10;93
56558;BME280;43358;50.356;12.456;2023-05-15T02:31:55;94965;;;10;93.1
56558;BME280;43358;50.356;12.456;2023-05-15T02:32:55;94966;;;10;93
56558;BME280;43358;50.356;12.456;2023-05-15T02:33:58;94968;;;10;93
56558;BME280;43358;50.356;12.456;2023-05-15T02:35:01;94966;;;10;93
56558;BME280;43358;50.356;12.456;2023-05-15T02:36:01;94966;;;10;93
56558;BME280;43358;50.356;12.456;2023-05-15T02:37:02;94967;;;9.9;93
56558;BME280;43358;50.356;12.456;2023-05-15T02:38:07;94961;;;9.9;93
56558;BME280;43358;50.356;12.456;2023-05-15T02:39:07;94964;;;9.9;93
56558;BME280;43358;50.356;12.456;2023-05-15T02:41:12;94956;;;9.9;93
56558;BME280;43358;50.356;12.456;2023-05-15T02:42:15;94955;;;9.9;93
56558;BME280;43358;50.356;12.456;2023-05-15T02:43:17;94950;;;9.9;93
56558;BME280;43358;50.356;12.456;2023-05-15T02:44:19;94949;;;9.9;93.1
56558;BME280;43358;50.356;12.456;2023-05-15T02:45:21;94950;;;9.9;93.2
56558;BME280;43358;50.356;12.456;2023-05-15T02:47:26;94945;;;9.9;93.3
56558;BME280;43358;50.356;12.456;2023-05-15T02:48:28;94944;;;9.9;93.3
56558;BME280;43358;50.356;12.456;2023-05-15T02:52:37;94941;;;9.8;93
56558;BME280;43358;50.356;12.456;2023-05-15T02:53:39;94943;;;9.8;93
56558;BME280;43358;50.356;12.456;2023-05-15T02:56:46;94940;;;9.8;92.8
56558;BME280;43358;50.356;12.456;2023-05-15T02:57:49;94939;;;9.8;92.8
56558;BME280;43358;50.356;12.456;2023-05-15T02:58:51;94938;;;9.8;93
56558;BME280;43358;50.356;12.456;2023-05-15T03:00:06;94937;;;9.8;93.1
56558;BME280;43358;50.356;12.456;2023-05-15T03:00:55;94939;;;9.8;93.3
56558;BME280;43358;50.356;12.456;2023-05-15T03:02:59;94937;;;9.8;93.4
56558;BME280;43358;50.356;12.456;2023-05-15T03:04:01;94937;;;9.8;93.4
56558;BME280;43358;50.356;12.456;2023-05-15T03:05:04;94936;;;9.7;93.5
56558;BME280;43358;50.356;12.456;2023-05-15T03:06:29;94939;;;9.7;93.8
56558;BME280;43358;50.356;12.456;2023-05-15T03:08:29;94936;;;9.7;93.7
56558;BME280;43358;50.356;12.456;2023-05-15T03:09:42;94930;;;9.7;93.7
56558;BME280;43358;50.356;12.456;2023-05-15T03:10:29;94936;;;9.7;93.5
56558;BME280;43358;50.356;12.456;2023-05-15T03:11:29;94935;;;9.7;93.6
56558;BME280;43358;50.356;12.456;2023-05-15T03:12:29;94936;;;9.7;93.6
56558;BME280;43358;50.356;12.456;2023-05-15T03:13:29;94932;;;9.7;93.2
56558;BME280;43358;50.356;12.456;2023-05-15T03:15:29;94933;;;9.7;93.4
56558;BME280;43358;50.356;12.456;2023-05-15T03:16:29;94934;;;9.7;93.4
56558;BME280;43358;50.356;12.456;2023-05-15T03:17:29;94933;;;9.7;93.4
56558;BME280;43358;50.356;12.456;2023-05-15T03:18:30;94932;;;9.7;93.4
56558;BME280;43358;50.356;12.456;2023-05-15T03:19:30;94932;;;9.7;93.5
56558;BME280;43358;50.356;12.456;2023-05-15T03:22:33;94932;;;9.7;93.5
56558;BME280;43358;50.356;12.456;2023-05-15T03:23:35;94931;;;9.7;93.6
56558;BME280;43358;50.356;12.456;2023-05-15T03:24:38;94931;;;9.7;93.6
56558;BME280;43358;50.356;12.456;2023-05-15T03:25:41;94930;;;9.7;93.6
56558;BME280;43358;50.356;12.456;2023-05-15T03:26:43;94932;;;9.7;93.6
56558;BME280;43358;50.356;12.456;2023-05-15T03:27:45;94928;;;9.6;93.6
56558;BME280;43358;50.356;12.456;2023-05-15T03:28:47;94926;;;9.6;93.6
56558;BME280;43358;50.356;12.456;2023-05-15T03:29:49;94928;;;9.6;93.6
56558;BME280;43358;50.356;12.456;2023-05-15T03:30:51;94930;;;9.6;93.6
56558;BME280;43358;50.356;12.456;2023-05-15T03:31:53;94928;;;9.6;93.7
56558;BME280;43358;50.356;12.456;2023-05-15T03:32:55;94924;;;9.6;93.8
56558;BME280;43358;50.356;12.456;2023-05-15T03:33:57;94926;;;9.6;93.7
56558;BME280;43358;50.356;12.456;2023-05-15T03:34:59;94926;;;9.6;93.6
56558;BME280;43358;50.356;12.456;2023-05-15T03:36:01;94927;;;9.6;93.5
56558;BME280;43358;50.356;12.456;2023-05-15T03:37:04;94927;;;9.6;93.4
56558;BME280;43358;50.356;12.456;2023-05-15T03:38:07;94928;;;9.6;93.4
56558;BME280;43358;50.356;12.456;2023-05-15T03:41:13;94927;;;9.5;93.2
56558;BME280;43358;50.356;12.456;2023-05-15T03:42:16;94925;;;9.5;93.2
56558;BME280;43358;50.356;12.456;2023-05-15T03:43:18;94925;;;9.5;93.3
56558;BME280;43358;50.356;12.456;2023-05-15T03:44:20;94922;;;9.5;93.3
56558;BME280;43358;50.356;12.456;2023-05-15T03:45:23;94924;;;9.5;93.3
56558;BME280;43358;50.356;12.456;2023-05-15T03:47:27;94924;;;9.5;93.2
56558;BME280;43358;50.356;12.456;2023-05-15T03:48:29;94925;;;9.5;93.4
56558;BME280;43358;50.356;12.456;2023-05-15T03:49:32;94929;;;9.4;93.2
56558;BME280;43358;50.356;12.456;2023-05-15T03:50:34;94929;;;9.4;93
56558;BME280;43358;50.356;12.456;2023-05-15T03:51:42;94928;;;9.4;92.9
56558;BME280;43358;50.356;12.456;2023-05-15T03:52:38;94927;;;9.3;92.9
56558;BME280;43358;50.356;12.456;2023-05-15T03:54:30;94929;;;9.3;92.8
56558;BME280;43358;50.356;12.456;2023-05-15T03:56:30;94928;;;9.3;93.1
56558;BME280;43358;50.356;12.456;2023-05-15T03:57:30;94931;;;9.3;93.3
56558;BME280;43358;50.356;12.456;2023-05-15T03:58:30;94933;;;9.3;93.2
56558;BME280;43358;50.356;12.456;2023-05-15T03:59:30;94932;;;9.3;93.1
56558;BME280;43358;50.356;12.456;2023-05-15T04:00:30;94932;;;9.2;93.1
56558;BME280;43358;50.356;12.456;2023-05-15T04:01:30;94928;;;9.2;92.9
56558;BME280;43358;50.356;12.456;2023-05-15T04:02:30;94931;;;9.2;92.8
56558;BME280;43358;50.356;12.456;2023-05-15T04:03:30;94930;;;9.2;92.7
56558;BME280;43358;50.356;12.456;2023-05-15T04:04:30;94931;;;9.2;92.7
56558;BME280;43358;50.356;12.456;2023-05-15T04:06:18;94928;;;9.2;92.8
56558;BME280;43358;50.356;12.456;2023-05-15T04:07:07;94925;;;9.1;92.9
56558;BME280;43358;50.356;12.456;2023-05-15T04:08:09;94923;;;9.1;93
56558;BME280;43358;50.356;12.456;2023-05-15T04:09:11;94925;;;9.1;93
56558;BME280;43358;50.356;12.456;2023-05-15T04:10:13;94926;;;9.1;93.4
56558;BME280;43358;50.356;12.456;2023-05-15T04:11:15;94924;;;9;93.8
56558;BME280;43358;50.356;12.456;2023-05-15T04:12:17;94923;;;9;94.1
56558;BME280;43358;50.356;12.456;2023-05-15T04:13:20;94926;;;9;94.2
56558;BME280;43358;50.356;12.456;2023-05-15T04:14:22;94925;;;9;94.2
56558;BME280;43358;50.356;12.456;2023-05-15T04:15:30;94927;;;8.9;94.2
56558;BME280;43358;50.356;12.456;2023-05-15T04:16:30;94916;;;8.9;94.3
56558;BME280;43358;50.356;12.456;2023-05-15T04:17:30;94918;;;8.9;94.4
56558;BME280;43358;50.356;12.456;2023-05-15T04:18:31;94920;;;8.8;94.3
56558;BME280;43358;50.356;12.456;2023-05-15T04:19:33;94917;;;8.8;94.2
56558;BME280;43358;50.356;12.456;2023-05-15T04:20:35;94916;;;8.8;94.1
56558;BME280;43358;50.356;12.456;2023-05-15T04:21:37;94916;;;8.8;93.8
56558;BME280;43358;50.356;12.456;2023-05-15T04:22:39;94918;;;8.8;93.7
56558;BME280;43358;50.356;12.456;2023-05-15T04:23:54;94916;;;8.8;93.7
56558;BME280;43358;50.356;12.456;2023-05-15T04:25:45;94918;;;8.8;93.8
56558;BME280;43358;50.356;12.456;2023-05-15T04:28:30;94918;;;8.8;93.9
56558;BME280;43358;50.356;12.456;2023-05-15T04:29:30;94918;;;8.8;93.9
56558;BME280;43358;50.356;12.456;2023-05-15T04:30:30;94918;;;8.8;93.8
56558;BME280;43358;50.356;12.456;2023-05-15T04:32:30;94916;;;8.7;93.9
56558;BME280;43358;50.356;12.456;2023-05-15T04:34:07;94914;;;8.7;93.9
56558;BME280;43358;50.356;12.456;2023-05-15T04:35:09;94913;;;8.7;94
56558;BME280;43358;50.356;12.456;2023-05-15T04:36:18;94915;;;8.7;94.2
56558;BME280;43358;50.356;12.456;2023-05-15T04:37:13;94916;;;8.7;94.4
56558;BME280;43358;50.356;12.456;2023-05-15T04:38:15;94908;;;8.7;94.4
56558;BME280;43358;50.356;12.456;2023-05-15T04:39:17;94917;;;8.7;94.4
56558;BME280;43358;50.356;12.456;2023-05-15T04:40:30;94913;;;8.8;94.4
56558;BME280;43358;50.356;12.456;2023-05-15T04:43:29;94916;;;8.8;94.4
56558;BME280;43358;50.356;12.456;2023-05-15T04:46:32;94918;;;8.8;94.6
56558;BME280;43358;50.356;12.456;2023-05-15T04:47:34;94916;;;8.9;94
56558;BME280;43358;50.356;12.456;2023-05-15T04:48:36;94919;;;8.9;94.2
56558;BME280;43358;50.356;12.456;2023-05-15T04:53:00;94917;;;8.9;94.3
56558;BME280;43358;50.356;12.456;2023-05-15T04:53:46;94915;;;8.9;94.5
56558;BME280;43358;50.356;12.456;2023-05-15T04:56:06;94916;;;9;94.3
56558;BME280;43358;50.356;12.456;2023-05-15T04:59:42;94917;;;8.9;94.7
56558;BME280;43358;50.356;12.456;2023-05-15T05:00:30;94915;;;8.9;94.7
56558;BME280;43358;50.356;12.456;2023-05-15T05:02:04;94913;;;8.9;94.8
56558;BME280;43358;50.356;12.456;2023-05-15T05:03:06;94910;;;9;94.8
56558;BME280;43358;50.356;12.456;2023-05-15T05:05:30;94910;;;9;94.9
56558;BME280;43358;50.356;12.456;2023-05-15T05:06:30;94904;;;9;94.9
56558;BME280;43358;50.356;12.456;2023-05-15T05:08:34;94906;;;9;95
56558;BME280;43358;50.356;12.456;2023-05-15T05:11:59;94905;;;9.1;94.3
56558;BME280;43358;50.356;12.456;2023-05-15T05:13:00;94901;;;9.2;93.9
56558;BME280;43358;50.356;12.456;2023-05-15T05:14:02;94900;;;9.2;94
56558;BME280;43358;50.356;12.456;2023-05-15T05:16:08;94900;;;9.2;94.2
56558;BME280;43358;50.356;12.456;2023-05-15T05:17:10;94899;;;9.2;94
56558;BME280;43358;50.356;12.456;2023-05-15T05:18:25;94899;;;9.1;94.5
56558;BME280;43358;50.356;12.456;2023-05-15T05:23:11;94896;;;9.3;94.4
56558;BME280;43358;50.356;12.456;2023-05-15T05:25:16;94897;;;9.3;94.5
56558;BME280;43358;50.356;12.456;2023-05-15T05:26:18;94895;;;9.3;94.5
56558;BME280;43358;50.356;12.456;2023-05-15T05:27:20;94893;;;9.4;94.4
56558;BME280;43358;50.356;12.456;2023-05-15T05:28:24;94892;;;9.4;94.3
56558;BME280;43358;50.356;12.456;2023-05-15T05:29:26;94893;;;9.4;94.2
56558;BME280;43358;50.356;12.456;2023-05-15T05:37:01;94892;;;9.5;94.8
56558;BME280;43358;50.356;12.456;2023-05-15T05:38:03;94895;;;9.5;94.7
56558;BME280;43358;50.356;12.456;2023-05-15T05:39:05;94892;;;9.5;94.7
56558;BME280;43358;50.356;12.456;2023-05-15T05:44:48;94892;;;9.7;94.9
56558;BME280;43358;50.356;12.456;2023-05-15T05:49:53;94897;;;9.8;95.1
56558;BME280;43358;50.356;12.456;2023-05-15T05:55:00;94891;;;10.4;93.5
56558;BME280;43358;50.356;12.456;2023-05-15T05:58:30;94889;;;10.7;92.8
56558;BME280;43358;50.356;12.456;2023-05-15T05:59:30;94891;;;10.7;92.7
56558;BME280;43358;50.356;12.456;2023-05-15T06:00:30;94888;;;10.8;89.8
56558;BME280;43358;50.356;12.456;2023-05-15T06:02:44;94887;;;10.9;88.2
56558;BME280;43358;50.356;12.456;2023-05-15T06:03:30;94886;;;11.1;90.5
56558;BME280;43358;50.356;12.456;2023-05-15T06:06:16;94882;;;11.2;90.3
56558;BME280;43358;50.356;12.456;2023-05-15T06:07:30;94880;;;11.4;88
56558;BME280;43358;50.356;12.456;2023-05-15T06:09:30;94882;;;11.5;88.1
56558;BME280;43358;50.356;12.456;2023-05-15T06:10:30;94881;;;11.6;88.8
56558;BME280;43358;50.356;12.456;2023-05-15T06:16:46;94877;;;11.9;89.1
56558;BME280;43358;50.356;12.456;2023-05-15T06:16:47;94878;;;12;88.7
56558;BME280;43358;50.356;12.456;2023-05-15T06:17:43;94879;;;12.2;86.1
56558;BME280;43358;50.356;12.456;2023-05-15T06:18:45;94873;;;12.3;85.3
56558;BME280;43358;50.356;12.456;2023-05-15T06:20:04;94874;;;12.4;83.8
56558;BME280;43358;50.356;12.456;2023-05-15T06:21:30;94869;;;12.5;84.6
56558;BME280;43358;50.356;12.456;2023-05-15T06:24:30;94870;;;12.8;86.4
56558;BME280;43358;50.356;12.456;2023-05-15T06:25:30;94868;;;12.9;85.4
56558;BME280;43358;50.356;12.456;2023-05-15T06:26:30;94868;;;12.9;84.1
56558;BME280;43358;50.356;12.456;2023-05-15T06:28:07;94869;;;12.9;84
56558;BME280;43358;50.356;12.456;2023-05-15T06:29:30;94869;;;13.1;84.7
56558;BME280;43358;50.356;12.456;2023-05-15T06:30:30;94868;;;13.1;84.3
56558;BME280;43358;50.356;12.456;2023-05-15T06:31:30;94870;;;13.2;84.1
56558;BME280;43358;50.356;12.456;2023-05-15T06:32:30;94866;;;13.2;83.8
56558;BME280;43358;50.356;12.456;2023-05-15T06:34:30;94864;;;13.3;83.6
56558;BME280;43358;50.356;12.456;2023-05-15T06:35:30;94863;;;13.4;83.3
56558;BME280;43358;50.356;12.456;2023-05-15T06:38:31;94859;;;13.7;82.4
56558;BME280;43358;50.356;12.456;2023-05-15T06:41:58;94860;;;13.8;82
56558;BME280;43358;50.356;12.456;2023-05-15T06:46:49;94847;;;13.9;81.2
56558;BME280;43358;50.356;12.456;2023-05-15T06:46:50;94853;;;13.9;81.1
56558;BME280;43358;50.356;12.456;2023-05-15T06:48:14;94852;;;14.1;81.5
56558;BME280;43358;50.356;12.456;2023-05-15T06:50:30;94850;;;14.1;79.7
56558;BME280;43358;50.356;12.456;2023-05-15T06:52:30;94848;;;14.1;79.2
56558;BME280;43358;50.356;12.456;2023-05-15T06:57:13;94848;;;14.1;80.5
56558;BME280;43358;50.356;12.456;2023-05-15T06:57:26;94848;;;14.1;80.6
56558;BME280;43358;50.356;12.456;2023-05-15T06:58:30;94847;;;14.2;77.8
56558;BME280;43358;50.356;12.456;2023-05-15T07:02:45;94843;;;14.3;77.5
56558;BME280;43358;50.356;12.456;2023-05-15T07:04:42;94835;;;14.2;78
56558;BME280;43358;50.356;12.456;2023-05-15T07:06:45;94840;;;14.1;78
56558;BME280;43358;50.356;12.456;2023-05-15T07:07:50;94837;;;14.1;79.3
56558;BME280;43358;50.356;12.456;2023-05-15T07:10:08;94835;;;14.2;80.4
56558;BME280;43358;50.356;12.456;2023-05-15T07:16:18;94843;;;14.4;78.3
56558;BME280;43358;50.356;12.456;2023-05-15T07:17:32;94839;;;14.5;76.2
56558;BME280;43358;50.356;12.456;2023-05-15T07:18:24;94838;;;14.6;75.8
56558;BME280;43358;50.356;12.456;2023-05-15T07:19:26;94836;;;14.6;76.6
56558;BME280;43358;50.356;12.456;2023-05-15T07:20:28;94835;;;14.6;76.9
56558;BME280;43358;50.356;12.456;2023-05-15T07:21:30;94833;;;14.8;76.3
56558;BME280;43358;50.356;12.456;2023-05-15T07:22:32;94833;;;14.9;76.6
56558;BME280;43358;50.356;12.456;2023-05-15T07:23:34;94833;;;15;76.2
56558;BME280;43358;50.356;12.456;2023-05-15T07:24:36;94833;;;15.1;78.1
56558;BME280;43358;50.356;12.456;2023-05-15T07:25:38;94837;;;15.1;77.5
56558;BME280;43358;50.356;12.456;2023-05-15T07:26:42;94835;;;15.2;78.5
56558;BME280;43358;50.356;12.456;2023-05-15T07:27:44;94835;;;15.3;79.5
56558;BME280;43358;50.356;12.456;2023-05-15T07:28:46;94834;;;15.5;75.4
56558;BME280;43358;50.356;12.456;2023-05-15T07:29:48;94836;;;15.5;75.2
56558;BME280;43358;50.356;12.456;2023-05-15T07:30:51;94833;;;15.7;75.9
56558;BME280;43358;50.356;12.456;2023-05-15T07:31:52;94831;;;15.7;73.6
56558;BME280;43358;50.356;12.456;2023-05-15T07:32:54;94831;;;15.8;74.5
56558;BME280;43358;50.356;12.456;2023-05-15T07:34:59;94832;;;15.9;76.1
56558;BME280;43358;50.356;12.456;2023-05-15T07:38:05;94831;;;16.1;71.9
56558;BME280;43358;50.356;12.456;2023-05-15T07:39:44;94829;;;16;71.9
56558;BME280;43358;50.356;12.456;2023-05-15T07:40:30;94826;;;16;71.8
56558;BME280;43358;50.356;12.456;2023-05-15T07:41:30;94827;;;16;72.9
56558;BME280;43358;50.356;12.456;2023-05-15T07:42:30;94826;;;15.9;73.1
56558;BME280;43358;50.356;12.456;2023-05-15T07:43:30;94827;;;15.9;72
56558;BME280;43358;50.356;12.456;2023-05-15T07:45:30;94827;;;15.9;73
56558;BME280;43358;50.356;12.456;2023-05-15T07:46:39;94824;;;15.9;72.7
56558;BME280;43358;50.356;12.456;2023-05-15T07:47:30;94824;;;15.9;73.2
56558;BME280;43358;50.356;12.456;2023-05-15T07:48:30;94827;;;16;75.9
56558;BME280;43358;50.356;12.456;2023-05-15T07:49:30;94827;;;16.1;72.5
56558;BME280;43358;50.356;12.456;2023-05-15T07:50:45;94824;;;16.2;72.7
56558;BME280;43358;50.356;12.456;2023-05-15T07:51:34;94826;;;16.2;73.9
56558;BME280;43358;50.356;12.456;2023-05-15T07:52:36;94826;;;16.3;72.3
56558;BME280;43358;50.356;12.456;2023-05-15T07:53:38;94826;;;16.3;73.5
56558;BME280;43358;50.356;12.456;2023-05-15T07:54:40;94825;;;16.4;71.3
56558;BME280;43358;50.356;12.456;2023-05-15T07:55:43;94824;;;16.4;73.6
56558;BME280;43358;50.356;12.456;2023-05-15T07:56:44;94825;;;16.4;73.1
56558;BME280;43358;50.356;12.456;2023-05-15T07:57:46;94827;;;16.5;72.4
56558;BME280;43358;50.356;12.456;2023-05-15T07:58:48;94825;;;16.5;71
56558;BME280;43358;50.356;12.456;2023-05-15T07:59:50;94827;;;16.5;70
56558;BME280;43358;50.356;12.456;2023-05-15T08:00:52;94826;;;16.5;70
56558;BME280;43358;50.356;12.456;2023-05-15T08:01:54;94822;;;16.4;69.7
56558;BME280;43358;50.356;12.456;2023-05-15T08:02:58;94826;;;16.4;69.3
56558;BME280;43358;50.356;12.456;2023-05-15T08:03:58;94828;;;16.4;71.5
56558;BME280;43358;50.356;12.456;2023-05-15T08:05:01;94825;;;16.5;71.7
56558;BME280;43358;50.356;12.456;2023-05-15T08:06:03;94827;;;16.5;70.5
56558;BME280;43358;50.356;12.456;2023-05-15T08:07:05;94830;;;16.5;71.9